Decoded Metar for EIME (CASEMENT in IRELAND) (IATA:N/A) | Meteo·Mobile Aviation Weather
aviador You're here:

EIME Decoded Metar

CASEMENT in IRELAND
Report Time2019-11-14 10:30:00
UTC Time2019-11-14 11:00:53
Flight Rules vfr VFR
Wind010° at 14 kt
W.Decomp.*RWY 05: 11.5 kt HW 8 kt LCW
RWY 29: 1.2 kt HW 13.9 kt RCW
Visibility9999 m
Phenomena:N/A
Clouds:Few 012 Hf
Few CB 018 Hf
Expected CloudBase > 1,200 ft AGL from Temp-Dew spread
CeilingNone
Temp05°C (ISA -9)
Dew Point02°C (81% RH)
AAT-1.7°C
QNH1006 hPa
Density Alt-492 ft
Elevation305 ft
Report Wrong Elevation
Raw Report
METAR EIME 141030Z 01014KT 330V050 9999 FEW012 FEW018CB 05/02 Q1006=

Extra information for EIME:More info

Metar Taf Metar & Taf Last 4 Metars F.Rules Stats Wind Profile Meteogram Temp Stats Airport Information Weather charts Add Link Nearby VenuesMetar ALERT Operation Metar Decoded Social comments